ADDS METAR Data INFO
IDs: Format: Raw Decoded Include TAF

Data at: 2055 UTC 26 May 2017

METAR for:KHSE (Hatteras/Mitchell Fl, NC, US)
Text:KHSE 262051Z AUTO 28009G17KT 10SM CLR 27/16 A2986 RMK AO2 SLP111 T02670156 56006 TSNO
Temperature: 26.7°C ( 80°F)
Dewpoint: 15.6°C ( 60°F) [RH = 51%]
Pressure (altimeter):29.86 inches Hg (1011.3 mb) [Sea level pressure: 1011.1 mb]
Winds:from the W (280 degrees) at 10 MPH (9 knots; 4.6 m/s) gusting to 20 MPH (17 knots; 8.7 m/s)
Visibility:10 or more sm (16+ km)
Ceiling:at least 12,000 feet AGL
Clouds:sky clear below 12,000 feet AGL
QC Flag:automated observation with no human augmentation
Text:KHSE 261951Z AUTO 28008G15KT 10SM CLR 27/15 A2986 RMK AO2 SLP111 T02720150 TSNO
Temperature: 27.2°C ( 81°F)
Dewpoint: 15.0°C ( 59°F) [RH = 47%]
Pressure (altimeter):29.86 inches Hg (1011.3 mb) [Sea level pressure: 1011.1 mb]
Winds:from the W (280 degrees) at 9 MPH (8 knots; 4.1 m/s) gusting to 17 MPH (15 knots; 7.7 m/s)
Visibility:10 or more sm (16+ km)
Ceiling:at least 12,000 feet AGL
Clouds:sky clear below 12,000 feet AGL
QC Flag:automated observation with no human augmentation
Text:KHSE 261851Z AUTO 28011G18KT 10SM CLR 27/15 A2987 RMK AO2 SLP114 T02670150 TSNO
Temperature: 26.7°C ( 80°F)
Dewpoint: 15.0°C ( 59°F) [RH = 49%]
Pressure (altimeter):29.87 inches Hg (1011.6 mb) [Sea level pressure: 1011.4 mb]
Winds:from the W (280 degrees) at 13 MPH (11 knots; 5.7 m/s) gusting to 21 MPH (18 knots; 9.3 m/s)
Visibility:10 or more sm (16+ km)
Ceiling:at least 12,000 feet AGL
Clouds:sky clear below 12,000 feet AGL
QC Flag:automated observation with no human augmentation
Text:KHSE 261751Z AUTO 28010G16KT 10SM CLR 27/15 A2988 RMK AO2 SLP117 T02670150 10267 20222 58000 TSNO
Temperature: 26.7°C ( 80°F)
Dewpoint: 15.0°C ( 59°F) [RH = 49%]
Pressure (altimeter):29.88 inches Hg (1011.9 mb) [Sea level pressure: 1011.7 mb]
Winds:from the W (280 degrees) at 12 MPH (10 knots; 5.1 m/s) gusting to 18 MPH (16 knots; 8.2 m/s)
Visibility:10 or more sm (16+ km)
Ceiling:at least 12,000 feet AGL
Clouds:sky clear below 12,000 feet AGL
QC Flag:automated observation with no human augmentation
Text:KHSE 261651Z AUTO 27013G20KT 10SM CLR 26/14 A2988 RMK AO2 SLP117 T02560144 TSNO
Temperature: 25.6°C ( 78°F)
Dewpoint: 14.4°C ( 58°F) [RH = 50%]
Pressure (altimeter):29.88 inches Hg (1011.9 mb) [Sea level pressure: 1011.7 mb]
Winds:from the W (270 degrees) at 15 MPH (13 knots; 6.7 m/s) gusting to 23 MPH (20 knots; 10.3 m/s)
Visibility:10 or more sm (16+ km)
Ceiling:at least 12,000 feet AGL
Clouds:sky clear below 12,000 feet AGL
QC Flag:automated observation with no human augmentation
Text:KHSE 261551Z AUTO 27011G23KT 10SM CLR 25/15 A2988 RMK AO2 SLP118 T02500150 TSNO
Temperature: 25.0°C ( 77°F)
Dewpoint: 15.0°C ( 59°F) [RH = 54%]
Pressure (altimeter):29.88 inches Hg (1011.9 mb) [Sea level pressure: 1011.8 mb]
Winds:from the W (270 degrees) at 13 MPH (11 knots; 5.7 m/s) gusting to 26 MPH (23 knots; 11.8 m/s)
Visibility:10 or more sm (16+ km)
Ceiling:at least 12,000 feet AGL
Clouds:sky clear below 12,000 feet AGL
QC Flag:automated observation with no human augmentation
Text:KHSE 261451Z AUTO 27009G20KT 230V300 10SM CLR 25/15 A2988 RMK AO2 SLP117 T02500150 51006 TSNO
Temperature: 25.0°C ( 77°F)
Dewpoint: 15.0°C ( 59°F) [RH = 54%]
Pressure (altimeter):29.88 inches Hg (1011.9 mb) [Sea level pressure: 1011.7 mb]
Winds:from the W (270 degrees) at 10 MPH (9 knots; 4.6 m/s) gusting to 23 MPH (20 knots; 10.3 m/s)
Visibility:10 or more sm (16+ km)
Ceiling:at least 12,000 feet AGL
Clouds:sky clear below 12,000 feet AGL
QC Flag:automated observation with no human augmentation
Text:KHSE 261351Z AUTO 27010G22KT 10SM CLR 24/16 A2988 RMK AO2 SLP116 T02390156 TSNO
Temperature: 23.9°C ( 75°F)
Dewpoint: 15.6°C ( 60°F) [RH = 60%]
Pressure (altimeter):29.88 inches Hg (1011.9 mb) [Sea level pressure: 1011.6 mb]
Winds:from the W (270 degrees) at 12 MPH (10 knots; 5.1 m/s) gusting to 25 MPH (22 knots; 11.3 m/s)
Visibility:10 or more sm (16+ km)
Ceiling:at least 12,000 feet AGL
Clouds:sky clear below 12,000 feet AGL
QC Flag:automated observation with no human augmentation
Text:KHSE 261251Z AUTO 27011G22KT 10SM CLR 23/15 A2987 RMK AO2 SLP116 T02280150 TSNO
Temperature: 22.8°C ( 73°F)
Dewpoint: 15.0°C ( 59°F) [RH = 61%]
Pressure (altimeter):29.87 inches Hg (1011.6 mb) [Sea level pressure: 1011.6 mb]
Winds:from the W (270 degrees) at 13 MPH (11 knots; 5.7 m/s) gusting to 25 MPH (22 knots; 11.3 m/s)
Visibility:10 or more sm (16+ km)
Ceiling:at least 12,000 feet AGL
Clouds:sky clear below 12,000 feet AGL
QC Flag:automated observation with no human augmentation
Text:KHSE 261151Z AUTO 27014G25KT 10SM CLR 22/14 A2986 RMK AO2 SLP112 70002 T02220144 10222 20211 51022 TSNO
Temperature: 22.2°C ( 72°F)
Dewpoint: 14.4°C ( 58°F) [RH = 61%]
Pressure (altimeter):29.86 inches Hg (1011.3 mb) [Sea level pressure: 1011.2 mb]
Winds:from the W (270 degrees) at 16 MPH (14 knots; 7.2 m/s) gusting to 29 MPH (25 knots; 12.9 m/s)
Visibility:10 or more sm (16+ km)
Ceiling:at least 12,000 feet AGL
Clouds:sky clear below 12,000 feet AGL
QC Flag:automated observation with no human augmentation
Text:KHSE 261051Z AUTO 26012G20KT 10SM CLR 21/14 A2985 RMK AO2 SLP107 T02110144 TSNO
Temperature: 21.1°C ( 70°F)
Dewpoint: 14.4°C ( 58°F) [RH = 66%]
Pressure (altimeter):29.85 inches Hg (1010.9 mb) [Sea level pressure: 1010.7 mb]
Winds:from the W (260 degrees) at 14 MPH (12 knots; 6.2 m/s) gusting to 23 MPH (20 knots; 10.3 m/s)
Visibility:10 or more sm (16+ km)
Ceiling:at least 12,000 feet AGL
Clouds:sky clear below 12,000 feet AGL
QC Flag:automated observation with no human augmentation
Text:KHSE 260951Z AUTO 27014G21KT 10SM CLR 21/14 A2983 RMK AO2 PK WND 26026/0924 SLP100 T02110139 TSNO
Temperature: 21.1°C ( 70°F)
Dewpoint: 13.9°C ( 57°F) [RH = 63%]
Pressure (altimeter):29.83 inches Hg (1010.2 mb) [Sea level pressure: 1010.0 mb]
Winds:from the W (270 degrees) at 16 MPH (14 knots; 7.2 m/s) gusting to 24 MPH (21 knots; 10.8 m/s)
Visibility:10 or more sm (16+ km)
Ceiling:at least 12,000 feet AGL
Clouds:sky clear below 12,000 feet AGL
QC Flag:automated observation with no human augmentation
Text:KHSE 260851Z AUTO 27013G23KT 10SM CLR 21/13 A2980 RMK AO2 PK WND 26028/0804 SLP090 T02110133 53014 TSNO
Temperature: 21.1°C ( 70°F)
Dewpoint: 13.3°C ( 56°F) [RH = 61%]
Pressure (altimeter):29.80 inches Hg (1009.2 mb) [Sea level pressure: 1009.0 mb]
Winds:from the W (270 degrees) at 15 MPH (13 knots; 6.7 m/s) gusting to 26 MPH (23 knots; 11.8 m/s)
Visibility:10 or more sm (16+ km)
Ceiling:at least 12,000 feet AGL
Clouds:sky clear below 12,000 feet AGL
QC Flag:automated observation with no human augmentation
Text:KHSE 260751Z AUTO 27013G24KT 10SM CLR 22/13 A2978 RMK AO2 PK WND 26026/0734 SLP083 T02170133 TSNO
Temperature: 21.7°C ( 71°F)
Dewpoint: 13.3°C ( 56°F) [RH = 59%]
Pressure (altimeter):29.78 inches Hg (1008.5 mb) [Sea level pressure: 1008.3 mb]
Winds:from the W (270 degrees) at 15 MPH (13 knots; 6.7 m/s) gusting to 28 MPH (24 knots; 12.3 m/s)
Visibility:10 or more sm (16+ km)
Ceiling:at least 12,000 feet AGL
Clouds:sky clear below 12,000 feet AGL
QC Flag:automated observation with no human augmentation
Text:KHSE 260651Z AUTO 25012G25KT 10SM CLR 21/13 A2977 RMK AO2 SLP079 T02110128 TSNO
Temperature: 21.1°C ( 70°F)
Dewpoint: 12.8°C ( 55°F) [RH = 59%]
Pressure (altimeter):29.77 inches Hg (1008.2 mb) [Sea level pressure: 1007.9 mb]
Winds:from the WSW (250 degrees) at 14 MPH (12 knots; 6.2 m/s) gusting to 29 MPH (25 knots; 12.9 m/s)
Visibility:10 or more sm (16+ km)
Ceiling:at least 12,000 feet AGL
Clouds:sky clear below 12,000 feet AGL
QC Flag:automated observation with no human augmentation
Text:KHSE 260551Z AUTO 26013G21KT 10SM CLR 22/13 A2976 RMK AO2 PK WND 25028/0513 SLP076 T02170133 10222 20217 51013 TSNO
Temperature: 21.7°C ( 71°F)
Dewpoint: 13.3°C ( 56°F) [RH = 59%]
Pressure (altimeter):29.76 inches Hg (1007.9 mb) [Sea level pressure: 1007.6 mb]
Winds:from the W (260 degrees) at 15 MPH (13 knots; 6.7 m/s) gusting to 24 MPH (21 knots; 10.8 m/s)
Visibility:10 or more sm (16+ km)
Ceiling:at least 12,000 feet AGL
Clouds:sky clear below 12,000 feet AGL
QC Flag:automated observation with no human augmentation
Text:KHSE 260451Z AUTO 26019G30KT 10SM CLR 22/13 A2975 RMK AO2 PK WND 23032/0357 SLP074 T02220128 402610194 TSNO
Temperature: 22.2°C ( 72°F)
Dewpoint: 12.8°C ( 55°F) [RH = 55%]
Pressure (altimeter):29.75 inches Hg (1007.5 mb) [Sea level pressure: 1007.4 mb]
Winds:from the W (260 degrees) at 22 MPH (19 knots; 9.8 m/s) gusting to 34 MPH (30 knots; 15.4 m/s)
Visibility:10 or more sm (16+ km)
Ceiling:at least 12,000 feet AGL
Clouds:sky clear below 12,000 feet AGL
QC Flag:automated observation with no human augmentation
Text:KHSE 260351Z AUTO 25014G25KT 9SM SCT012 22/14 A2974 RMK AO2 PK WND 26028/0339 SLP070 T02220139 TSNO
Temperature: 22.2°C ( 72°F)
Dewpoint: 13.9°C ( 57°F) [RH = 59%]
Pressure (altimeter):29.74 inches Hg (1007.2 mb) [Sea level pressure: 1007.0 mb]
Winds:from the WSW (250 degrees) at 16 MPH (14 knots; 7.2 m/s) gusting to 29 MPH (25 knots; 12.9 m/s)
Visibility: 9 sm ( 14 km)
Ceiling:at least 12,000 feet AGL
Clouds: scattered clouds at 1200 feet AGL
QC Flag:automated observation with no human augmentation
Text:KHSE 260251Z AUTO 25018G28KT 10SM CLR 22/14 A2972 RMK AO2 PK WND 26030/0214 SLP063 T02220144 51033 TSNO
Temperature: 22.2°C ( 72°F)
Dewpoint: 14.4°C ( 58°F) [RH = 61%]
Pressure (altimeter):29.72 inches Hg (1006.5 mb) [Sea level pressure: 1006.3 mb]
Winds:from the WSW (250 degrees) at 21 MPH (18 knots; 9.3 m/s) gusting to 32 MPH (28 knots; 14.4 m/s)
Visibility:10 or more sm (16+ km)
Ceiling:at least 12,000 feet AGL
Clouds:sky clear below 12,000 feet AGL
QC Flag:automated observation with no human augmentation
Text:KHSE 260151Z AUTO 26018G26KT 10SM CLR 22/13 A2969 RMK AO2 PK WND 25029/0127 SLP054 T02170133 TSNO
Temperature: 21.7°C ( 71°F)
Dewpoint: 13.3°C ( 56°F) [RH = 59%]
Pressure (altimeter):29.69 inches Hg (1005.5 mb) [Sea level pressure: 1005.4 mb]
Winds:from the W (260 degrees) at 21 MPH (18 knots; 9.3 m/s) gusting to 30 MPH (26 knots; 13.4 m/s)
Visibility:10 or more sm (16+ km)
Ceiling:at least 12,000 feet AGL
Clouds:sky clear below 12,000 feet AGL
QC Flag:automated observation with no human augmentation
Text:KHSE 260051Z AUTO 25014G26KT 10SM CLR 22/14 A2966 RMK AO2 PK WND 25027/2354 SLP045 T02170139 TSNO
Temperature: 21.7°C ( 71°F)
Dewpoint: 13.9°C ( 57°F) [RH = 61%]
Pressure (altimeter):29.66 inches Hg (1004.5 mb) [Sea level pressure: 1004.5 mb]
Winds:from the WSW (250 degrees) at 16 MPH (14 knots; 7.2 m/s) gusting to 30 MPH (26 knots; 13.4 m/s)
Visibility:10 or more sm (16+ km)
Ceiling:at least 12,000 feet AGL
Clouds:sky clear below 12,000 feet AGL
QC Flag:automated observation with no human augmentation
Text:KHSE 252351Z AUTO 24016G26KT 10SM CLR 22/13 A2962 RMK AO2 PK WND 25031/2328 SLP031 60002 T02170133 10261 20194 53013 TSNO
Temperature: 21.7°C ( 71°F)
Dewpoint: 13.3°C ( 56°F) [RH = 59%]
Pressure (altimeter):29.62 inches Hg (1003.1 mb) [Sea level pressure: 1003.1 mb]
Winds:from the WSW (240 degrees) at 18 MPH (16 knots; 8.2 m/s) gusting to 30 MPH (26 knots; 13.4 m/s)
Visibility:10 or more sm (16+ km)
Ceiling:at least 12,000 feet AGL
Clouds:sky clear below 12,000 feet AGL
QC Flag:automated observation with no human augmentation
Text:KHSE 252251Z AUTO 25019G36KT 10SM FEW016 22/13 A2960 RMK AO2 PK WND 24036/2246 RAE26 SLP024 P0002 T02170133 TSNO
Temperature: 21.7°C ( 71°F)
Dewpoint: 13.3°C ( 56°F) [RH = 59%]
Pressure (altimeter):29.60 inches Hg (1002.5 mb) [Sea level pressure: 1002.4 mb]
Winds:from the WSW (250 degrees) at 22 MPH (19 knots; 9.8 m/s) gusting to 41 MPH (36 knots; 18.5 m/s)
Visibility:10 or more sm (16+ km)
Ceiling:at least 12,000 feet AGL
Clouds: few clouds at 1600 feet AGL
QC Flag:automated observation with no human augmentation
Text:KHSE 252151Z AUTO 25026G41KT 4SM RA FEW033 SCT048 BKN110 20/13 A2960 RMK AO2 PK WND 24041/2145 RAB49 SLP022 P0000 T02000133 TSNO
Temperature: 20.0°C ( 68°F)
Dewpoint: 13.3°C ( 56°F) [RH = 65%]
Pressure (altimeter):29.60 inches Hg (1002.5 mb) [Sea level pressure: 1002.2 mb]
Winds:from the WSW (250 degrees) at 30 MPH (26 knots; 13.4 m/s) gusting to 47 MPH (41 knots; 21.1 m/s)
Visibility: 4 sm ( 6 km)
Ceiling:11000 feet AGL
Clouds: few clouds at 3300 feet AGL, scattered clouds at 4800 feet AGL, broken clouds at 11000 feet AGL
Weather:RA (moderate rain)
QC Flag:automated observation with no human augmentation
Text:KHSE 252123Z AUTO 24023G35KT 9SM FEW031 24/15 A2959 RMK AO2 PK WND 24035/2121 T02390150 TSNO
Temperature: 23.9°C ( 75°F)
Dewpoint: 15.0°C ( 59°F) [RH = 57%]
Pressure (altimeter):29.59 inches Hg (1002.1 mb)
Winds:from the WSW (240 degrees) at 26 MPH (23 knots; 11.8 m/s) gusting to 40 MPH (35 knots; 18.0 m/s)
Visibility: 9 sm ( 14 km)
Ceiling:at least 12,000 feet AGL
Clouds: few clouds at 3100 feet AGL
QC Flag:automated observation with no human augmentation
Text:KHSE 252051Z AUTO 24017G28KT 7SM BKN029 25/16 A2959 RMK AO2 PK WND 23033/1957 SLP018 T02500161 56006 TSNO
Temperature: 25.0°C ( 77°F)
Dewpoint: 16.1°C ( 61°F) [RH = 58%]
Pressure (altimeter):29.59 inches Hg (1002.1 mb) [Sea level pressure: 1001.8 mb]
Winds:from the WSW (240 degrees) at 20 MPH (17 knots; 8.7 m/s) gusting to 32 MPH (28 knots; 14.4 m/s)
Visibility: 7 sm ( 11 km)
Ceiling:2900 feet AGL
Clouds: broken clouds at 2900 feet AGL
QC Flag:automated observation with no human augmentation


Page loaded:  20:55 UTC  |   01:55 PM Pacific  |   02:55 PM Mountain  |   03:55 PM Central  |   04:55 PM Eastern

 

ADVISORIES

FORECASTS

FORECASTS

OBSERVATIONS

USER TOOLS

ABOUT US